Time;durP1;ratioP1;P1;durP2;ratioP2;P2;SDS_P1;SDS_P2;PMS_P1;PMS_P2;Temp;Humidity;BMP_temperature;BMP_pressure;BME280_temperature;BME280_humidity;BME280_pressure;Samples;Min_cycle;Max_cycle;Signal;HPM_P1;HPM_P2
2022/01/14 00:02:06;;;;;;;130.20;33.47;;;6.00;99.90;;;;;;5011829;28;20038;-54
2022/01/14 00:04:31;;;;;;;137.73;33.58;;;6.00;99.90;;;;;;5011960;28;20034;-54
2022/01/14 00:06:57;;;;;;;131.98;34.70;;;6.00;99.90;;;;;;5011387;28;20034;-54
2022/01/14 00:09:24;;;;;;;127.10;34.67;;;6.00;99.90;;;;;;5004070;28;20038;-55
2022/01/14 00:11:56;;;;;;;134.40;33.83;;;6.00;99.90;;;;;;4978358;28;20045;-54
2022/01/14 00:14:38;;;;;;;113.13;33.42;;;6.00;99.90;;;;;;5011932;28;20168;-54
2022/01/14 00:17:08;;;;;;;125.38;33.15;;;6.00;99.90;;;;;;5003276;28;20083;-54
2022/01/14 00:19:34;;;;;;;122.20;34.97;;;6.00;99.90;;;;;;5011757;28;20482;-54
2022/01/14 00:22:07;;;;;;;124.90;33.05;;;6.00;99.90;;;;;;4978005;28;20549;-55
2022/01/14 00:32:57;;;;;;;134.45;35.42;;;6.00;99.90;;;;;;5011549;28;20525;-54
2022/01/14 00:35:23;;;;;;;154.35;36.60;;;6.00;99.90;;;;;;5011467;28;20042;-53
2022/01/14 00:37:48;;;;;;;117.47;33.28;;;6.00;99.90;;;;;;4992173;28;20440;-54
2022/01/14 00:40:14;;;;;;;123.43;33.55;;;6.00;99.90;;;;;;4991947;28;20043;-54
2022/01/14 00:42:40;;;;;;;140.35;36.10;;;6.00;99.90;;;;;;5003070;28;20034;-54
2022/01/14 00:45:07;;;;;;;124.38;33.92;;;6.00;99.90;;;;;;5011657;28;20037;-54
2022/01/14 00:47:37;;;;;;;130.13;36.75;;;6.00;99.90;;;;;;5011589;28;20042;-54
2022/01/14 00:50:07;;;;;;;113.75;33.53;;;6.00;99.90;;;;;;5003966;28;20046;-55
2022/01/14 00:52:33;;;;;;;111.53;32.63;;;6.00;99.90;;;;;;5014653;28;20119;-54
2022/01/14 00:55:26;;;;;;;123.10;32.85;;;5.90;99.90;;;;;;5046089;28;20041;-53
2022/01/14 01:00:29;;;;;;;106.40;31.60;;;5.90;99.90;;;;;;5015523;28;20104;-53
2022/01/14 01:02:55;;;;;;;112.75;31.58;;;5.90;99.90;;;;;;4997899;28;20080;-52
2022/01/14 01:05:20;;;;;;;122.18;33.05;;;5.90;99.90;;;;;;5015249;28;20409;-51
2022/01/14 01:07:57;;;;;;;111.55;32.03;;;6.00;99.90;;;;;;5015381;28;20042;-52
2022/01/14 01:10:23;;;;;;;109.97;31.83;;;6.00;99.90;;;;;;4997959;28;20050;-53
2022/01/14 01:12:54;;;;;;;102.07;31.80;;;6.00;99.90;;;;;;4997710;28;20052;-53
2022/01/14 01:15:20;;;;;;;112.38;31.67;;;5.90;99.90;;;;;;5015449;28;20045;-50
2022/01/14 01:17:47;;;;;;;102.22;30.23;;;6.00;99.90;;;;;;5014943;28;20054;-52
2022/01/14 01:20:18;;;;;;;108.57;31.75;;;5.90;99.90;;;;;;5015177;28;20045;-52
2022/01/14 01:22:49;;;;;;;117.05;32.92;;;5.90;99.90;;;;;;5012404;28;20080;-53
2022/01/14 01:25:19;;;;;;;112.88;33.53;;;5.90;99.90;;;;;;5014658;28;20089;-50
2022/01/14 01:27:47;;;;;;;117.22;32.95;;;5.90;99.90;;;;;;5014621;28;20056;-53
2022/01/14 01:30:16;;;;;;;103.65;31.25;;;5.90;99.90;;;;;;5014927;28;20101;-52
2022/01/14 01:32:46;;;;;;;114.03;31.85;;;5.90;99.90;;;;;;5011490;28;20101;-52
2022/01/14 01:35:12;;;;;;;113.10;32.35;;;5.90;99.90;;;;;;4965064;28;20038;-51
2022/01/14 01:37:38;;;;;;;114.30;32.38;;;6.00;99.90;;;;;;4995598;28;20042;-49
2022/01/14 01:40:05;;;;;;;118.63;33.67;;;5.90;99.90;;;;;;4995745;28;20045;-49
2022/01/14 01:42:31;;;;;;;124.68;32.85;;;5.90;99.90;;;;;;4998140;28;20056;-50
2022/01/14 01:44:59;;;;;;;121.53;35.40;;;5.90;99.90;;;;;;5014799;28;20482;-50
2022/01/14 01:47:25;;;;;;;117.80;32.53;;;5.90;99.90;;;;;;5014847;28;20041;-53
2022/01/14 01:49:51;;;;;;;121.97;31.75;;;5.90;99.90;;;;;;5015058;28;20049;-53
2022/01/14 01:52:17;;;;;;;120.25;34.72;;;5.90;99.90;;;;;;5014633;28;20041;-53
2022/01/14 01:54:42;;;;;;;116.07;32.75;;;5.90;99.90;;;;;;5014864;28;20041;-53
2022/01/14 01:57:08;;;;;;;111.32;32.67;;;5.90;99.90;;;;;;5014571;28;20048;-53
2022/01/14 01:59:33;;;;;;;110.22;31.80;;;5.90;99.90;;;;;;5014796;28;20046;-53
2022/01/14 02:02:00;;;;;;;118.00;31.33;;;5.90;99.90;;;;;;5014402;28;20038;-54
2022/01/14 02:04:26;;;;;;;107.82;31.63;;;5.90;99.90;;;;;;5014562;28;20044;-53
2022/01/14 02:06:54;;;;;;;120.78;33.28;;;5.90;99.90;;;;;;5014493;28;20109;-53
2022/01/14 02:09:20;;;;;;;105.57;32.25;;;5.90;99.90;;;;;;5014497;28;20042;-53
2022/01/14 02:11:45;;;;;;;98.90;30.08;;;5.90;99.90;;;;;;5013742;28;20038;-52
2022/01/14 02:14:27;;;;;;;96.13;31.15;;;5.90;99.90;;;;;;5014136;28;20038;-52
2022/01/14 02:22:08;;;;;;;93.95;29.90;;;6.00;99.90;;;;;;5014494;28;20049;-51
2022/01/14 02:22:51;;;;;;;93.32;28.88;;;6.00;99.90;;;;;;5013625;28;20049;-50
2022/01/14 02:25:28;;;;;;;91.85;29.30;;;6.00;99.90;;;;;;5014342;28;20401;-50
2022/01/14 02:27:58;;;;;;;87.75;28.23;;;6.00;99.90;;;;;;5014121;28;20042;-52
2022/01/14 02:30:25;;;;;;;81.75;26.92;;;6.00;99.90;;;;;;5013937;28;20042;-53
2022/01/14 02:32:51;;;;;;;82.82;26.25;;;6.00;99.90;;;;;;5013374;28;20470;-53
2022/01/14 02:35:17;;;;;;;78.93;26.40;;;6.00;99.90;;;;;;5006916;28;20084;-54
2022/01/14 02:37:43;;;;;;;70.72;26.17;;;6.00;99.90;;;;;;5013576;28;20512;-53
2022/01/14 02:40:09;;;;;;;76.63;26.95;;;6.00;99.90;;;;;;5013613;28;20125;-53
2022/01/14 02:42:35;;;;;;;74.80;25.08;;;6.00;99.90;;;;;;5012823;28;20061;-53
2022/01/14 02:45:05;;;;;;;76.70;26.40;;;6.00;99.90;;;;;;5013332;28;20064;-52
2022/01/14 02:47:31;;;;;;;71.50;25.00;;;6.00;99.90;;;;;;5013928;28;20065;-51
2022/01/14 02:49:56;;;;;;;83.32;26.02;;;6.00;99.90;;;;;;4979943;28;20497;-53
2022/01/14 02:52:42;;;;;;;76.38;25.77;;;6.00;99.90;;;;;;5002230;28;20446;-53
2022/01/14 02:55:18;;;;;;;79.75;25.77;;;6.00;99.90;;;;;;5013343;28;20457;-53
2022/01/14 02:57:52;;;;;;;77.25;25.63;;;6.00;99.90;;;;;;5013030;28;20129;-53
2022/01/14 03:00:21;;;;;;;77.80;26.73;;;6.00;99.90;;;;;;5012871;28;20042;-53
2022/01/14 03:02:49;;;;;;;68.30;24.52;;;6.00;99.90;;;;;;5013058;28;20038;-52
2022/01/14 03:05:16;;;;;;;65.72;24.52;;;6.00;99.90;;;;;;4995671;28;20430;-53
2022/01/14 03:07:42;;;;;;;61.42;23.88;;;6.00;99.90;;;;;;5013284;28;20147;-53
2022/01/14 03:10:11;;;;;;;77.13;27.58;;;6.00;99.90;;;;;;5012348;28;20509;-53
2022/01/14 03:12:37;;;;;;;80.30;27.13;;;6.10;99.90;;;;;;5012963;28;20118;-51
2022/01/14 03:15:03;;;;;;;78.93;27.02;;;6.10;99.90;;;;;;5013129;28;20041;-53
2022/01/14 03:17:29;;;;;;;75.40;27.80;;;6.10;99.90;;;;;;5012829;28;20490;-52
2022/01/14 03:19:57;;;;;;;71.10;27.02;;;6.10;99.90;;;;;;5013091;28;20049;-53
2022/01/14 03:22:29;;;;;;;70.60;26.95;;;6.10;99.90;;;;;;4995264;28;20069;-54
2022/01/14 03:27:20;;;;;;;73.30;27.00;;;6.10;99.90;;;;;;5012969;28;20045;-53
2022/01/14 03:29:46;;;;;;;71.65;27.02;;;6.20;99.90;;;;;;5012664;28;20394;-52
2022/01/14 03:32:12;;;;;;;82.38;27.85;;;6.10;99.90;;;;;;5012664;28;20041;-54
2022/01/14 03:34:37;;;;;;;73.55;27.30;;;6.10;99.90;;;;;;5012707;28;20397;-51
2022/01/14 03:37:04;;;;;;;70.75;26.60;;;6.00;99.90;;;;;;4995251;28;20037;-53
2022/01/14 03:39:30;;;;;;;79.65;27.25;;;6.10;99.90;;;;;;5012397;28;20057;-54
2022/01/14 03:41:56;;;;;;;86.97;27.83;;;6.00;99.90;;;;;;5012763;28;20452;-53
2022/01/14 03:44:21;;;;;;;74.15;26.83;;;6.00;99.90;;;;;;5012690;28;20115;-53
2022/01/14 03:46:47;;;;;;;67.47;25.48;;;6.00;99.90;;;;;;5012757;28;20050;-51
2022/01/14 03:49:13;;;;;;;76.22;26.42;;;6.00;99.90;;;;;;5012350;28;20497;-53
2022/01/14 03:51:39;;;;;;;78.53;26.48;;;6.00;99.90;;;;;;5012478;28;20042;-53
2022/01/14 03:54:05;;;;;;;80.55;27.45;;;6.00;99.90;;;;;;5012556;28;20064;-54
2022/01/14 03:56:31;;;;;;;82.97;26.38;;;5.90;99.90;;;;;;5012008;28;20049;-53
2022/01/14 03:58:57;;;;;;;78.45;25.58;;;6.00;99.90;;;;;;5010861;28;20135;-53
2022/01/14 04:01:23;;;;;;;87.72;25.63;;;5.90;99.90;;;;;;5012331;28;20069;-52
2022/01/14 04:03:49;;;;;;;81.30;26.70;;;5.90;99.90;;;;;;5012266;28;20396;-54
2022/01/14 04:06:16;;;;;;;73.53;25.73;;;5.90;99.90;;;;;;5010796;28;20034;-53
2022/01/14 04:08:43;;;;;;;75.47;26.70;;;5.90;99.90;;;;;;4991874;28;20063;-53
2022/01/14 04:11:09;;;;;;;81.45;26.88;;;5.90;99.90;;;;;;5020120;28;20054;-53
2022/01/14 04:16:05;;;;;;;86.00;27.42;;;5.90;99.90;;;;;;5012337;28;20100;-54
2022/01/14 04:18:31;;;;;;;82.00;27.13;;;5.90;99.90;;;;;;5011802;28;20205;-54
2022/01/14 04:20:57;;;;;;;77.43;27.20;;;5.90;99.90;;;;;;5011915;28;20136;-54
2022/01/14 04:23:23;;;;;;;73.75;26.80;;;5.90;99.90;;;;;;5012039;28;20041;-54
2022/01/14 04:25:53;;;;;;;81.82;27.90;;;5.90;99.90;;;;;;5011275;28;20042;-54
2022/01/14 04:28:20;;;;;;;83.03;28.38;;;5.90;99.90;;;;;;5011456;28;20084;-54
2022/01/14 04:31:41;;;;;;;90.03;29.02;;;5.90;99.90;;;;;;5012435;28;20544;-53
2022/01/14 04:34:08;;;;;;;83.05;27.95;;;5.90;99.90;;;;;;4980675;28;20092;-53
2022/01/14 04:36:34;;;;;;;78.90;27.73;;;5.90;99.90;;;;;;5011959;28;20429;-54
2022/01/14 04:38:59;;;;;;;87.30;28.13;;;5.90;99.90;;;;;;5011554;28;20046;-50
2022/01/14 04:41:25;;;;;;;84.20;28.02;;;5.90;99.90;;;;;;5011822;28;20030;-51
2022/01/14 04:43:50;;;;;;;82.47;28.83;;;5.90;99.90;;;;;;4993651;28;20061;-54
2022/01/14 04:48:55;;;;;;;80.15;26.15;;;5.90;99.90;;;;;;5011569;28;20046;-51
2022/01/14 04:51:21;;;;;;;84.05;26.52;;;5.90;99.90;;;;;;5011739;28;20510;-51
2022/01/14 04:53:48;;;;;;;69.47;25.75;;;5.90;99.90;;;;;;5011617;28;20044;-51
2022/01/14 04:56:14;;;;;;;71.00;26.95;;;5.90;99.90;;;;;;5011550;28;20038;-53
2022/01/14 04:58:40;;;;;;;80.78;28.08;;;5.90;99.90;;;;;;5011027;28;20494;-52
2022/01/14 05:01:05;;;;;;;69.55;25.95;;;5.90;99.90;;;;;;5011603;28;20030;-50
2022/01/14 05:03:31;;;;;;;80.25;26.45;;;5.90;99.90;;;;;;5011631;28;20068;-52
2022/01/14 05:05:59;;;;;;;74.82;26.67;;;5.90;99.90;;;;;;5011655;28;20594;-52
2022/01/14 05:08:34;;;;;;;87.35;26.42;;;5.90;99.90;;;;;;5011066;28;20046;-53
2022/01/14 05:11:05;;;;;;;79.40;26.65;;;5.90;99.90;;;;;;5011437;28;20088;-53
2022/01/14 05:13:31;;;;;;;70.70;26.02;;;5.80;99.90;;;;;;5010572;28;20091;-54
2022/01/14 05:15:56;;;;;;;75.05;26.33;;;5.80;99.90;;;;;;4994177;28;20532;-51
2022/01/14 05:18:23;;;;;;;68.80;24.60;;;5.80;99.90;;;;;;5011522;28;20442;-54
2022/01/14 05:20:48;;;;;;;66.07;24.55;;;5.80;99.90;;;;;;5011413;28;20494;-53
2022/01/14 05:23:14;;;;;;;70.15;25.52;;;5.80;99.90;;;;;;5010965;28;20045;-53
2022/01/14 05:25:39;;;;;;;71.30;24.73;;;5.80;99.90;;;;;;5011437;28;20070;-53
2022/01/14 05:28:05;;;;;;;69.55;25.20;;;5.90;99.90;;;;;;5011292;28;20478;-55
2022/01/14 05:30:30;;;;;;;66.65;25.15;;;5.80;99.90;;;;;;5011607;28;20040;-53
2022/01/14 05:32:57;;;;;;;71.22;24.52;;;5.80;99.90;;;;;;5010860;28;20096;-50
2022/01/14 05:35:25;;;;;;;60.00;24.27;;;5.80;99.90;;;;;;5011343;28;20073;-54
2022/01/14 05:37:50;;;;;;;64.35;23.17;;;5.80;99.90;;;;;;5013709;28;20383;-54
2022/01/14 05:40:17;;;;;;;64.43;23.23;;;5.80;99.90;;;;;;5014864;28;20049;-51
2022/01/14 05:42:43;;;;;;;67.70;24.92;;;5.80;99.90;;;;;;5014297;28;20434;-54
2022/01/14 05:45:11;;;;;;;55.33;21.30;;;5.80;99.90;;;;;;5014815;28;20750;-54
2022/01/14 05:47:38;;;;;;;66.30;22.80;;;5.80;99.90;;;;;;5014815;28;20505;-54
2022/01/14 05:50:05;;;;;;;68.28;22.20;;;5.80;99.90;;;;;;4997322;28;20049;-53
2022/01/14 05:52:31;;;;;;;56.75;21.55;;;5.80;99.90;;;;;;5014108;28;20042;-53
2022/01/14 05:54:56;;;;;;;64.13;22.63;;;5.80;99.90;;;;;;5014948;28;20100;-53
2022/01/14 05:57:34;;;;;;;75.03;23.10;;;5.80;99.90;;;;;;5014783;28;20076;-54
2022/01/14 06:00:03;;;;;;;58.88;22.65;;;5.80;99.90;;;;;;4980894;28;20124;-52
2022/01/14 06:02:29;;;;;;;66.47;23.38;;;5.80;99.90;;;;;;4986577;28;20414;-49
2022/01/14 06:04:58;;;;;;;63.80;22.48;;;5.80;99.90;;;;;;5019843;28;20038;-52
2022/01/14 06:07:24;;;;;;;61.78;22.50;;;5.80;99.90;;;;;;4986806;28;20180;-50
2022/01/14 06:09:49;;;;;;;64.88;22.73;;;5.80;99.90;;;;;;4992094;28;20546;-49
2022/01/14 06:12:15;;;;;;;62.53;23.23;;;5.80;99.90;;;;;;5012590;28;20128;-53
2022/01/14 06:14:40;;;;;;;71.70;23.83;;;5.80;99.90;;;;;;5014029;28;20042;-53
2022/01/14 06:17:06;;;;;;;65.13;23.13;;;5.80;99.90;;;;;;4996529;28;20453;-52
2022/01/14 06:19:31;;;;;;;60.75;23.67;;;5.80;99.90;;;;;;5013983;28;20488;-52
2022/01/14 06:21:57;;;;;;;58.33;24.70;;;5.80;99.90;;;;;;5013620;28;20038;-53
2022/01/14 06:24:23;;;;;;;61.50;23.58;;;5.80;99.90;;;;;;5013821;28;20064;-53
2022/01/14 06:26:48;;;;;;;59.50;22.77;;;5.80;99.90;;;;;;5014015;28;20038;-52
2022/01/14 06:29:14;;;;;;;65.72;22.48;;;5.80;99.90;;;;;;5014019;28;20129;-50
2022/01/14 06:31:39;;;;;;;66.18;24.40;;;5.80;99.90;;;;;;5013625;28;20038;-52
2022/01/14 06:34:05;;;;;;;61.97;23.13;;;5.80;99.90;;;;;;5013374;28;20038;-53
2022/01/14 06:36:30;;;;;;;57.00;24.40;;;5.80;99.90;;;;;;4995810;28;20045;-52
2022/01/14 06:38:56;;;;;;;53.75;22.60;;;5.80;99.90;;;;;;5013661;28;20046;-51
2022/01/14 06:41:21;;;;;;;59.50;24.20;;;5.80;99.90;;;;;;5013689;28;20513;-52
2022/01/14 06:43:47;;;;;;;54.17;22.98;;;5.80;99.90;;;;;;5013021;28;20038;-51
2022/01/14 06:46:12;;;;;;;63.33;24.42;;;5.80;99.90;;;;;;5013666;28;20320;-52
2022/01/14 06:48:38;;;;;;;66.93;23.95;;;5.80;99.90;;;;;;5012438;28;20042;-53
2022/01/14 06:51:03;;;;;;;60.40;23.35;;;5.80;99.90;;;;;;5012997;28;20490;-56
2022/01/14 06:53:29;;;;;;;58.03;23.63;;;5.80;99.90;;;;;;5002600;28;20062;-48
2022/01/14 06:55:55;;;;;;;58.63;23.23;;;5.80;99.90;;;;;;5002039;28;20124;-49
2022/01/14 06:58:21;;;;;;;59.65;23.23;;;5.90;99.90;;;;;;4976215;28;20034;-52
2022/01/14 07:00:46;;;;;;;61.58;23.42;;;5.80;99.90;;;;;;4994247;28;20038;-52
2022/01/14 07:03:12;;;;;;;62.30;23.08;;;5.80;99.90;;;;;;5001618;28;20041;-53
2022/01/14 07:05:37;;;;;;;52.15;22.73;;;5.80;99.90;;;;;;4999525;28;20046;-52
2022/01/14 07:08:03;;;;;;;55.08;22.88;;;5.80;99.90;;;;;;4983696;28;20088;-52
2022/01/14 07:10:34;;;;;;;52.85;22.58;;;5.80;99.90;;;;;;4994037;28;20076;-52
2022/01/14 07:13:00;;;;;;;51.97;22.42;;;5.90;99.90;;;;;;4997081;28;20120;-51
2022/01/14 07:15:25;;;;;;;46.00;21.52;;;5.90;99.90;;;;;;5003328;28;20042;-48
2022/01/14 07:17:51;;;;;;;46.13;21.02;;;5.90;99.90;;;;;;4995012;28;20038;-52
2022/01/14 07:20:18;;;;;;;46.72;21.95;;;5.90;99.90;;;;;;5012838;28;20053;-52
2022/01/14 07:22:46;;;;;;;46.88;22.20;;;5.90;99.90;;;;;;5012994;28;20037;-52
2022/01/14 07:25:12;;;;;;;50.80;22.38;;;5.90;99.90;;;;;;4995351;28;20040;-51
2022/01/14 07:27:37;;;;;;;47.47;20.90;;;5.90;99.90;;;;;;5012660;28;20548;-52
2022/01/14 07:30:04;;;;;;;40.75;20.15;;;5.90;99.90;;;;;;5012678;28;20046;-52
2022/01/14 07:32:30;;;;;;;40.75;20.73;;;5.90;99.90;;;;;;5012007;28;20046;-51
2022/01/14 07:34:55;;;;;;;37.50;20.23;;;5.90;99.90;;;;;;4995053;28;20128;-51
2022/01/14 07:37:21;;;;;;;35.95;20.75;;;6.00;99.90;;;;;;5012670;28;20081;-50
2022/01/14 07:39:47;;;;;;;40.72;20.95;;;5.90;99.90;;;;;;4995055;28;20049;-51
2022/01/14 07:42:13;;;;;;;43.92;21.83;;;6.00;99.90;;;;;;5012231;28;20034;-48
2022/01/14 07:44:39;;;;;;;42.13;20.75;;;6.00;99.90;;;;;;5012044;28;20037;-49
2022/01/14 07:47:05;;;;;;;45.13;21.15;;;6.00;99.90;;;;;;5009912;28;20044;-51
2022/01/14 07:49:30;;;;;;;39.55;20.17;;;6.00;99.90;;;;;;5011155;28;20077;-49
2022/01/14 07:51:56;;;;;;;43.53;21.58;;;6.00;99.90;;;;;;5004470;28;20502;-48
2022/01/14 07:54:22;;;;;;;34.03;19.92;;;6.00;99.90;;;;;;5014751;28;20041;-52
2022/01/14 07:56:52;;;;;;;39.88;21.33;;;6.00;99.90;;;;;;5032000;28;20091;-53
2022/01/14 07:59:20;;;;;;;38.80;20.90;;;6.00;99.90;;;;;;5031978;28;20061;-50
2022/01/14 08:01:47;;;;;;;41.42;19.85;;;6.00;99.90;;;;;;5014000;28;20069;-51
2022/01/14 08:04:13;;;;;;;39.88;20.95;;;6.00;99.90;;;;;;5011799;28;20076;-51
2022/01/14 08:06:45;;;;;;;43.00;21.05;;;6.10;99.90;;;;;;5011582;28;20034;-51
2022/01/14 08:09:11;;;;;;;41.38;21.30;;;6.10;99.90;;;;;;5008910;28;20092;-49
2022/01/14 08:11:37;;;;;;;41.08;20.05;;;6.10;99.90;;;;;;5007080;28;20045;-49
2022/01/14 08:14:02;;;;;;;39.08;20.08;;;6.10;99.90;;;;;;4999561;28;20056;-52
2022/01/14 08:16:28;;;;;;;42.35;20.08;;;6.10;99.90;;;;;;4996933;28;20053;-52
2022/01/14 08:18:53;;;;;;;43.13;22.27;;;6.10;99.90;;;;;;5001893;28;20050;-52
2022/01/14 08:21:19;;;;;;;39.45;20.77;;;6.10;99.90;;;;;;5003981;28;20068;-55
2022/01/14 08:23:44;;;;;;;38.58;19.38;;;6.10;99.90;;;;;;5004086;28;20038;-53
2022/01/14 08:26:10;;;;;;;39.95;20.95;;;6.20;99.90;;;;;;5000098;28;20033;-52
2022/01/14 08:28:36;;;;;;;40.28;20.42;;;6.20;99.90;;;;;;5006905;28;20030;-51
2022/01/14 08:31:03;;;;;;;40.92;19.35;;;6.20;99.90;;;;;;4985036;28;20053;-49
2022/01/14 08:33:29;;;;;;;40.25;20.33;;;6.20;99.90;;;;;;5000699;28;20045;-49
2022/01/14 08:35:54;;;;;;;34.83;18.40;;;6.20;99.90;;;;;;5005121;28;20050;-52
2022/01/14 08:38:21;;;;;;;35.40;18.80;;;6.20;99.90;;;;;;5006132;28;20037;-50
2022/01/14 08:40:47;;;;;;;42.70;19.95;;;6.20;99.90;;;;;;4983448;28;20050;-53
2022/01/14 08:43:12;;;;;;;38.05;18.85;;;6.30;99.90;;;;;;4997130;28;20511;-52
2022/01/14 08:45:38;;;;;;;47.38;19.83;;;6.30;99.90;;;;;;5002618;28;20627;-51
2022/01/14 08:48:04;;;;;;;37.83;19.58;;;6.30;99.90;;;;;;5001333;28;20037;-49
2022/01/14 08:50:36;;;;;;;33.55;17.92;;;6.30;99.90;;;;;;4999575;28;20490;-52
2022/01/14 08:53:04;;;;;;;37.08;19.42;;;6.30;99.90;;;;;;4996609;28;20053;-53
2022/01/14 08:55:30;;;;;;;39.92;18.25;;;6.30;99.90;;;;;;5018423;28;20046;-53
2022/01/14 08:57:55;;;;;;;45.30;20.20;;;6.30;99.90;;;;;;4999100;28;20452;-53
2022/01/14 09:00:23;;;;;;;33.45;19.48;;;6.30;99.90;;;;;;5004843;28;20499;-53
2022/01/14 09:02:50;;;;;;;36.78;19.15;;;6.40;99.90;;;;;;4986349;28;20101;-52
2022/01/14 09:05:15;;;;;;;43.08;19.27;;;6.40;99.90;;;;;;4986012;28;20113;-52
2022/01/14 09:07:41;;;;;;;42.08;18.63;;;6.40;99.90;;;;;;5006815;28;20112;-54
2022/01/14 09:10:08;;;;;;;39.28;19.13;;;6.40;99.90;;;;;;5010617;28;20042;-51
2022/01/14 09:12:34;;;;;;;38.15;19.05;;;6.40;99.90;;;;;;5006253;28;20042;-53
2022/01/14 09:15:01;;;;;;;44.00;18.48;;;6.40;99.90;;;;;;4999481;28;20410;-53
2022/01/14 09:17:30;;;;;;;35.53;18.48;;;6.40;99.90;;;;;;5004608;28;20042;-52
2022/01/14 09:19:56;;;;;;;34.05;17.92;;;6.40;99.90;;;;;;5014110;28;20038;-53
2022/01/14 09:22:22;;;;;;;33.50;17.38;;;6.50;99.90;;;;;;5014796;28;20034;-52
2022/01/14 09:24:48;;;;;;;35.85;17.17;;;6.50;99.90;;;;;;5014975;28;20072;-49
2022/01/14 09:27:15;;;;;;;36.10;17.40;;;6.50;99.90;;;;;;4999161;28;20033;-52
2022/01/14 09:29:42;;;;;;;35.28;18.15;;;6.50;99.90;;;;;;5013215;28;20397;-51
2022/01/14 09:32:08;;;;;;;36.83;17.00;;;6.50;99.90;;;;;;5010476;28;20041;-50
2022/01/14 09:34:34;;;;;;;43.72;17.70;;;6.50;99.90;;;;;;5003126;28;20049;-54
2022/01/14 09:37:00;;;;;;;36.40;17.60;;;6.50;99.90;;;;;;5000205;28;20026;-53
2022/01/14 09:39:25;;;;;;;35.38;16.83;;;6.60;99.90;;;;;;5005328;28;20387;-50
2022/01/14 09:41:51;;;;;;;36.60;17.13;;;6.70;99.90;;;;;;4998979;28;20041;-51
2022/01/14 09:44:18;;;;;;;35.42;16.35;;;6.60;99.90;;;;;;4997748;28;20033;-51
2022/01/14 09:46:47;;;;;;;31.05;16.27;;;6.70;99.90;;;;;;5009257;28;20065;-54
2022/01/14 09:49:17;;;;;;;34.03;16.25;;;6.70;99.90;;;;;;5016544;28;20081;-50
2022/01/14 09:51:43;;;;;;;34.25;15.40;;;6.70;99.90;;;;;;5014338;28;20037;-51
2022/01/14 09:54:10;;;;;;;23.95;14.85;;;6.70;99.90;;;;;;5004558;28;20061;-53
2022/01/14 09:56:37;;;;;;;32.70;15.32;;;6.80;99.90;;;;;;5014767;28;20046;-53
2022/01/14 09:59:03;;;;;;;29.27;14.65;;;6.80;99.90;;;;;;5012530;28;20498;-50
2022/01/14 10:01:37;;;;;;;31.50;14.98;;;6.80;99.90;;;;;;4980740;28;20042;-53
2022/01/14 10:04:03;;;;;;;36.03;14.60;;;6.80;99.90;;;;;;5012197;28;20042;-53
2022/01/14 10:06:40;;;;;;;29.30;14.55;;;6.80;99.90;;;;;;5014416;28;20042;-51
2022/01/14 10:09:09;;;;;;;30.92;13.45;;;6.90;99.90;;;;;;5010942;28;20038;-53
2022/01/14 10:11:37;;;;;;;32.42;14.27;;;6.90;99.90;;;;;;5014234;28;20069;-53
2022/01/14 10:14:16;;;;;;;29.85;13.57;;;6.90;99.90;;;;;;5005368;28;20052;-52
2022/01/14 10:16:43;;;;;;;31.38;13.07;;;7.00;99.90;;;;;;5005637;28;20117;-53
2022/01/14 10:19:19;;;;;;;31.35;13.10;;;7.00;99.90;;;;;;4981556;28;20081;-53
2022/01/14 10:21:45;;;;;;;29.00;12.15;;;7.00;99.90;;;;;;5001914;28;20509;-51
2022/01/14 10:24:11;;;;;;;27.98;12.20;;;7.00;99.90;;;;;;5008617;28;20038;-51
2022/01/14 10:26:56;;;;;;;30.33;12.88;;;7.00;99.90;;;;;;5002622;28;20046;-50
2022/01/14 10:29:39;;;;;;;31.60;11.85;;;7.10;99.90;;;;;;5003283;28;20380;-50
2022/01/14 10:32:07;;;;;;;27.27;11.77;;;7.10;99.90;;;;;;5013556;28;20052;-53
2022/01/14 10:34:34;;;;;;;24.23;11.15;;;7.10;99.90;;;;;;5013928;28;20532;-50
2022/01/14 10:37:18;;;;;;;24.85;11.48;;;7.10;99.90;;;;;;5013988;28;20046;-53
2022/01/14 10:39:49;;;;;;;26.35;11.85;;;7.10;99.90;;;;;;5013274;28;20119;-53
2022/01/14 10:42:31;;;;;;;25.07;11.93;;;7.10;99.90;;;;;;5013151;28;20045;-53
2022/01/14 10:45:19;;;;;;;31.75;11.77;;;7.10;99.90;;;;;;5013237;28;20105;-53
2022/01/14 10:47:51;;;;;;;27.50;12.50;;;7.10;99.90;;;;;;5012701;28;20033;-53
2022/01/14 10:50:17;;;;;;;29.15;12.85;;;7.20;99.90;;;;;;5013442;28;20073;-50
2022/01/14 10:52:49;;;;;;;29.20;11.13;;;7.30;99.90;;;;;;5013321;28;20120;-53
2022/01/14 10:55:45;;;;;;;31.83;11.68;;;7.20;99.90;;;;;;5012702;28;20041;-53
2022/01/14 10:58:33;;;;;;;25.25;10.55;;;7.20;99.90;;;;;;4992045;28;20135;-53
2022/01/14 11:01:07;;;;;;;24.85;10.18;;;7.30;99.90;;;;;;4992336;28;20054;-53
2022/01/14 11:03:38;;;;;;;22.45;10.07;;;7.30;99.90;;;;;;5012832;28;20045;-52
2022/01/14 11:06:22;;;;;;;24.83;9.98;;;7.20;99.90;;;;;;5013271;28;20042;-53
2022/01/14 11:08:57;;;;;;;30.48;10.63;;;7.20;99.90;;;;;;5013146;28;20057;-55
2022/01/14 11:11:24;;;;;;;24.80;10.82;;;7.30;99.90;;;;;;5012909;28;20046;-55
2022/01/14 11:13:50;;;;;;;21.88;10.13;;;7.30;99.90;;;;;;5013045;28;20046;-55
2022/01/14 11:16:16;;;;;;;26.90;9.32;;;7.30;99.90;;;;;;4995083;28;20068;-55
2022/01/14 11:18:45;;;;;;;19.70;8.52;;;7.30;99.90;;;;;;5012959;28;20037;-55
2022/01/14 11:23:55;;;;;;;21.35;8.32;;;7.30;99.90;;;;;;5016585;28;20049;-55
2022/01/14 11:26:22;;;;;;;21.85;8.20;;;7.30;99.90;;;;;;5026390;28;20045;-55
2022/01/14 11:28:48;;;;;;;18.27;8.60;;;7.30;99.90;;;;;;5012809;28;20042;-55
2022/01/14 11:31:35;;;;;;;21.23;8.52;;;7.40;99.90;;;;;;5012238;28;20088;-55
2022/01/14 11:34:04;;;;;;;21.35;7.75;;;7.40;99.90;;;;;;5007218;28;20048;-55
2022/01/14 11:36:52;;;;;;;20.25;7.55;;;7.40;99.90;;;;;;5014422;28;20573;-53
2022/01/14 11:39:24;;;;;;;21.45;6.57;;;7.40;99.90;;;;;;5021239;28;20057;-55
2022/01/14 11:41:56;;;;;;;26.42;7.93;;;7.40;99.90;;;;;;4995882;28;20423;-55
2022/01/14 11:44:41;;;;;;;18.52;7.53;;;7.40;99.90;;;;;;4991787;28;20135;-55
2022/01/14 11:47:07;;;;;;;15.00;6.70;;;7.40;99.90;;;;;;5003544;28;20076;-50
2022/01/14 11:49:38;;;;;;;16.70;7.20;;;7.40;99.90;;;;;;4999546;28;20038;-55
2022/01/14 11:52:06;;;;;;;19.40;6.45;;;7.50;99.90;;;;;;5005163;28;20042;-52
2022/01/14 11:54:41;;;;;;;19.05;7.78;;;7.50;99.90;;;;;;5008297;28;20050;-53
2022/01/14 11:57:07;;;;;;;19.23;7.55;;;7.50;99.90;;;;;;5000328;28;20548;-55
2022/01/14 11:59:52;;;;;;;21.42;6.75;;;7.50;99.90;;;;;;5008044;28;20040;-52
2022/01/14 12:02:29;;;;;;;16.98;6.88;;;7.50;99.90;;;;;;5002186;28;20097;-52
2022/01/14 12:05:10;;;;;;;20.13;6.97;;;7.50;99.90;;;;;;5010575;28;20560;-53
2022/01/14 12:10:34;;;;;;;20.92;6.82;;;7.50;99.90;;;;;;5001765;28;20088;-53
2022/01/14 12:13:26;;;;;;;20.10;7.13;;;7.50;99.90;;;;;;5000975;28;20038;-53
2022/01/14 12:15:58;;;;;;;19.55;6.97;;;7.50;99.90;;;;;;5006812;28;20449;-53
2022/01/14 12:18:43;;;;;;;15.32;6.07;;;7.50;99.90;;;;;;5009914;28;20037;-53
2022/01/14 12:21:08;;;;;;;18.13;6.35;;;7.50;99.90;;;;;;5004213;28;20189;-51
2022/01/14 12:23:34;;;;;;;19.40;6.35;;;7.50;99.90;;;;;;5001598;28;20129;-53
2022/01/14 12:26:13;;;;;;;23.40;6.40;;;7.50;99.90;;;;;;5008251;28;20048;-50
2022/01/14 12:28:39;;;;;;;14.82;5.72;;;7.60;99.90;;;;;;4993402;28;20052;-54
2022/01/14 12:31:05;;;;;;;18.35;6.05;;;7.50;99.90;;;;;;4977065;28;20414;-53
2022/01/14 12:33:40;;;;;;;20.85;6.60;;;7.50;99.90;;;;;;5009518;28;20041;-51
2022/01/14 12:36:15;;;;;;;18.77;6.95;;;7.50;99.90;;;;;;5003412;28;20040;-51
2022/01/14 12:38:42;;;;;;;17.80;5.65;;;7.50;99.90;;;;;;5000637;28;20395;-53
2022/01/14 12:41:20;;;;;;;12.20;5.47;;;7.50;99.90;;;;;;5009865;28;20373;-53
2022/01/14 12:43:56;;;;;;;14.23;4.85;;;7.60;99.90;;;;;;5006353;28;20077;-51
2022/01/14 12:46:36;;;;;;;15.02;5.30;;;7.60;99.90;;;;;;5010021;28;20037;-54
2022/01/14 12:49:07;;;;;;;14.27;4.60;;;7.60;99.90;;;;;;5011337;28;20034;-52
2022/01/14 12:51:33;;;;;;;13.63;4.47;;;7.60;99.90;;;;;;5011212;28;20050;-50
2022/01/14 12:54:01;;;;;;;14.55;4.85;;;7.50;99.90;;;;;;5011522;28;20067;-50
2022/01/14 12:56:31;;;;;;;12.18;4.43;;;7.50;99.90;;;;;;5011608;28;20483;-50
2022/01/14 12:59:15;;;;;;;17.45;4.43;;;7.50;99.90;;;;;;5011105;28;20125;-52
2022/01/14 13:01:49;;;;;;;12.48;4.38;;;7.50;99.90;;;;;;5011433;28;20038;-50
2022/01/14 13:04:16;;;;;;;13.77;4.57;;;7.50;99.90;;;;;;5010862;28;20422;-50
2022/01/14 13:06:46;;;;;;;10.75;4.05;;;7.50;99.90;;;;;;5011557;28;20123;-53
2022/01/14 13:09:18;;;;;;;14.18;4.47;;;7.50;99.90;;;;;;5011593;28;20069;-53
2022/01/14 13:11:51;;;;;;;15.73;4.70;;;7.50;99.90;;;;;;5011405;28;20064;-54